createdAt,value
2022-11-21T00:01:54.794Z,69.59
2022-11-21T00:04:21.399Z,69.38
2022-11-21T00:06:47.928Z,69.43
2022-11-21T00:09:14.629Z,69.47
2022-11-21T00:11:41.123Z,69.32
2022-11-21T00:14:07.740Z,69.72
2022-11-21T00:16:34.298Z,69.57
2022-11-21T00:19:02.966Z,69.73
2022-11-21T00:21:29.622Z,69.52
2022-11-21T00:23:56.211Z,69.58
2022-11-21T00:26:22.794Z,69.62
2022-11-21T00:28:49.440Z,69.31
2022-11-21T00:31:24.103Z,69.36
2022-11-21T00:33:50.826Z,69.19
2022-11-21T00:36:17.435Z,68.72
2022-11-21T00:38:44.154Z,69.10
2022-11-21T00:41:10.827Z,68.71
2022-11-21T00:43:37.703Z,68.99
2022-11-21T00:46:04.402Z,68.88
2022-11-21T00:48:32.210Z,68.61
2022-11-21T00:51:00.484Z,68.87
2022-11-21T00:53:27.197Z,68.70
2022-11-21T00:55:53.840Z,68.87
2022-11-21T00:58:20.389Z,68.80
2022-11-21T01:00:47.060Z,68.95
2022-11-21T01:03:13.650Z,68.93
2022-11-21T01:05:40.293Z,69.16
2022-11-21T01:08:06.973Z,69.26
2022-11-21T01:10:35.521Z,68.90
2022-11-21T01:13:02.424Z,68.95
2022-11-21T01:15:29.093Z,69.16
2022-11-21T01:17:55.660Z,68.90
2022-11-21T01:20:22.246Z,69.38
2022-11-21T01:22:48.908Z,68.68
2022-11-21T01:25:15.519Z,69.71
2022-11-21T01:27:42.014Z,69.32
2022-11-21T01:30:09.049Z,69.48
2022-11-21T01:32:35.828Z,69.25
2022-11-21T01:35:02.406Z,69.32
2022-11-21T01:37:29.062Z,69.39
2022-11-21T01:39:55.611Z,69.18
2022-11-21T01:42:22.270Z,69.08
2022-11-21T01:44:52.047Z,68.99
2022-11-21T01:47:19.080Z,69.47
2022-11-21T01:49:46.996Z,69.36
2022-11-21T01:52:25.473Z,69.21
2022-11-21T01:54:56.985Z,68.67
2022-11-21T01:57:43.958Z,68.46
2022-11-21T02:00:18.248Z,68.79
2022-11-21T02:02:51.608Z,68.78
2022-11-21T02:05:23.280Z,69.29
2022-11-21T02:07:55.239Z,70.00
2022-11-21T02:10:22.940Z,69.24
2022-11-21T02:12:52.137Z,69.82
2022-11-21T02:15:21.549Z,70.02
2022-11-21T02:17:48.091Z,69.78
2022-11-21T02:20:17.705Z,70.53
2022-11-21T02:23:09.954Z,70.83
2022-11-21T02:25:39.184Z,70.95
2022-11-21T02:28:08.387Z,71.20
2022-11-21T02:30:37.683Z,71.35
2022-11-21T02:33:04.972Z,70.98
2022-11-21T02:35:33.744Z,70.53
2022-11-21T02:38:29.099Z,70.12
2022-11-21T02:41:01.776Z,70.64
2022-11-21T02:43:37.594Z,70.51
2022-11-21T02:46:04.248Z,70.55
2022-11-21T02:48:30.854Z,70.63
2022-11-21T02:50:57.417Z,70.94
2022-11-21T02:53:24.007Z,69.82
2022-11-21T02:55:50.716Z,70.24
2022-11-21T02:58:17.351Z,70.26
2022-11-21T03:00:44.054Z,70.29
2022-11-21T03:03:11.277Z,69.28
2022-11-21T03:05:39.557Z,69.92
2022-11-21T03:08:06.777Z,69.69
2022-11-21T03:10:33.723Z,70.28
2022-11-21T03:13:03.160Z,70.69
2022-11-21T03:15:32.068Z,70.81
2022-11-21T03:17:58.698Z,70.03
2022-11-21T03:20:25.540Z,70.91
2022-11-21T03:22:53.564Z,69.97
2022-11-21T03:25:20.932Z,70.79
2022-11-21T03:27:50.971Z,70.65
2022-11-21T03:30:17.669Z,70.78
2022-11-21T03:32:44.314Z,71.28
2022-11-21T03:35:11.731Z,70.62
2022-11-21T03:37:42.418Z,70.53
2022-11-21T03:40:09.793Z,70.99
2022-11-21T03:42:36.425Z,70.47
2022-11-21T03:45:03.270Z,70.50
2022-11-21T03:47:29.941Z,70.57
2022-11-21T03:49:56.518Z,70.54
2022-11-21T03:52:23.167Z,70.87
2022-11-21T03:54:49.759Z,70.70
2022-11-21T03:57:16.395Z,71.06
2022-11-21T03:59:42.956Z,71.15
2022-11-21T04:02:09.593Z,70.88
2022-11-21T04:04:36.132Z,70.96
2022-11-21T04:07:02.895Z,71.00
2022-11-21T04:09:29.654Z,70.96
2022-11-21T04:11:56.244Z,71.24
2022-11-21T04:14:22.728Z,71.46
2022-11-21T04:16:49.514Z,71.38
2022-11-21T04:19:16.178Z,71.66
2022-11-21T04:21:42.781Z,71.83
2022-11-21T04:24:09.378Z,72.27
2022-11-21T04:26:36.018Z,72.75
2022-11-21T04:29:02.621Z,72.64
2022-11-21T04:31:29.227Z,72.21
2022-11-21T04:33:55.794Z,72.75
2022-11-21T04:36:22.327Z,72.57
2022-11-21T04:38:48.998Z,73.00
2022-11-21T04:41:15.590Z,73.52
2022-11-21T04:43:42.229Z,73.71
2022-11-21T04:46:08.987Z,73.76
2022-11-21T04:48:35.664Z,73.87
2022-11-21T04:51:02.225Z,74.32
2022-11-21T04:53:28.782Z,75.05
2022-11-21T04:55:55.369Z,75.28
2022-11-21T04:58:21.903Z,75.63
2022-11-21T05:00:48.677Z,75.89
2022-11-21T05:03:15.519Z,75.92
2022-11-21T05:05:42.246Z,75.83
2022-11-21T05:08:08.816Z,75.74
2022-11-21T05:10:55.411Z,75.77
2022-11-21T05:13:22.115Z,75.86
2022-11-21T05:15:51.581Z,75.58
2022-11-21T05:18:19.980Z,76.14
2022-11-21T05:20:46.619Z,75.72
2022-11-21T05:23:13.337Z,75.84
2022-11-21T05:25:40.344Z,76.14
2022-11-21T05:28:07.071Z,76.44
2022-11-21T05:30:33.731Z,76.04
2022-11-21T05:33:00.463Z,76.23
2022-11-21T05:35:27.005Z,76.04
2022-11-21T05:37:59.622Z,76.64
2022-11-21T05:40:26.841Z,76.83
2022-11-21T05:43:11.800Z,76.86
2022-11-21T05:45:38.429Z,77.22
2022-11-21T05:48:07.935Z,77.98
2022-11-21T05:50:36.329Z,78.54
2022-11-21T05:53:04.984Z,79.25
2022-11-21T05:55:34.101Z,79.72
2022-11-21T05:58:01.375Z,79.74
2022-11-21T06:00:28.980Z,80.14
2022-11-21T06:03:14.224Z,80.68
2022-11-21T06:05:41.164Z,81.27
2022-11-21T06:08:07.803Z,81.15
2022-11-21T06:10:34.527Z,81.52
2022-11-21T06:13:01.592Z,81.69
2022-11-21T06:15:28.831Z,81.54
2022-11-21T06:17:55.453Z,82.01
2022-11-21T06:20:22.087Z,82.30
2022-11-21T06:22:48.700Z,82.69
2022-11-21T06:25:15.356Z,82.65
2022-11-21T06:27:41.937Z,82.52
2022-11-21T06:30:08.884Z,82.44
2022-11-21T06:32:38.629Z,82.47
2022-11-21T06:35:05.885Z,82.59
2022-11-21T06:37:32.527Z,82.75
2022-11-21T06:39:59.661Z,82.53
2022-11-21T06:42:26.362Z,82.49
2022-11-21T06:44:53.365Z,82.40
2022-11-21T06:47:20.401Z,82.18
2022-11-21T06:49:47.168Z,82.73
2022-11-21T06:52:13.769Z,82.68
2022-11-21T06:54:40.448Z,82.76
2022-11-21T06:57:07.293Z,82.94
2022-11-21T06:59:34.056Z,83.22
2022-11-21T07:02:00.760Z,83.03
2022-11-21T07:04:27.680Z,83.07
2022-11-21T07:06:54.516Z,83.17
2022-11-21T07:09:36.410Z,82.55
2022-11-21T07:12:22.147Z,82.52
2022-11-21T07:14:48.924Z,82.72
2022-11-21T07:17:15.784Z,82.69
2022-11-21T07:19:42.337Z,82.60
2022-11-21T07:22:09.204Z,82.49
2022-11-21T07:24:35.791Z,82.55
2022-11-21T07:27:02.502Z,82.25
2022-11-21T07:29:29.728Z,82.16
2022-11-21T07:31:56.645Z,82.37
2022-11-21T07:34:23.204Z,82.66
2022-11-21T07:36:49.806Z,82.62
2022-11-21T07:39:16.630Z,82.56
2022-11-21T07:41:43.184Z,82.75
2022-11-21T07:44:09.878Z,83.06
2022-11-21T07:46:36.491Z,83.12
2022-11-21T07:49:03.849Z,83.04
2022-11-21T07:51:30.846Z,82.73
2022-11-21T07:53:57.405Z,83.08
2022-11-21T07:56:26.436Z,82.96
2022-11-21T07:58:53.556Z,82.88
2022-11-21T08:01:20.249Z,82.69
2022-11-21T08:03:46.976Z,82.84
2022-11-21T08:06:13.908Z,82.66
2022-11-21T08:08:40.473Z,82.89
2022-11-21T08:11:07.323Z,82.63
2022-11-21T08:13:35.483Z,82.76
2022-11-21T08:16:05.359Z,82.96
2022-11-21T08:18:32.453Z,82.63
2022-11-21T08:21:02.500Z,82.94
2022-11-21T08:23:29.150Z,82.91
2022-11-21T08:25:55.707Z,82.93
2022-11-21T08:28:22.440Z,83.01
2022-11-21T08:30:49.390Z,82.88
2022-11-21T08:33:16.715Z,82.88
2022-11-21T08:35:43.364Z,82.84
2022-11-21T08:38:10.098Z,82.80
2022-11-21T08:40:36.866Z,82.97
2022-11-21T08:43:08.996Z,82.69
2022-11-21T08:45:36.959Z,82.79
2022-11-21T08:48:04.477Z,82.55
2022-11-21T08:50:32.070Z,82.52
2022-11-21T08:53:02.250Z,81.12
2022-11-21T08:55:29.930Z,81.67
2022-11-21T08:57:56.657Z,82.22
2022-11-21T09:00:23.531Z,82.16
2022-11-21T09:02:50.291Z,82.30
2022-11-21T09:05:16.880Z,81.27
2022-11-21T09:07:43.575Z,81.40
2022-11-21T09:10:10.602Z,81.09
2022-11-21T09:12:37.233Z,80.88
2022-11-21T09:15:23.007Z,82.22
2022-11-21T09:18:04.853Z,81.46
2022-11-21T09:20:34.199Z,81.22
2022-11-21T09:23:05.974Z,81.71
2022-11-21T09:25:33.062Z,81.25
2022-11-21T09:28:01.147Z,82.40
2022-11-21T09:30:27.798Z,81.35
2022-11-21T09:32:54.387Z,80.82
2022-11-21T09:35:21.078Z,81.40
2022-11-21T09:37:47.677Z,81.21
2022-11-21T09:40:17.687Z,81.07
2022-11-21T09:42:52.879Z,80.53
2022-11-21T09:45:38.432Z,81.13
2022-11-21T09:48:12.900Z,82.16
2022-11-21T09:50:47.093Z,81.82
2022-11-21T09:53:19.014Z,81.51
2022-11-21T09:56:13.973Z,81.33
2022-11-21T09:58:49.233Z,80.71
2022-11-21T10:01:17.224Z,80.45
2022-11-21T10:03:47.420Z,80.43
2022-11-21T10:06:26.545Z,80.43
2022-11-21T10:09:16.448Z,80.37
2022-11-21T10:12:21.063Z,79.88
2022-11-21T10:15:09.436Z,80.11
2022-11-21T10:18:00.861Z,80.17
2022-11-21T10:20:27.666Z,79.90
2022-11-21T10:23:09.105Z,80.41
2022-11-21T10:25:39.950Z,80.95
2022-11-21T10:28:23.177Z,80.62
2022-11-21T10:30:52.532Z,79.97
2022-11-21T10:33:31.649Z,80.19
2022-11-21T10:36:05.676Z,79.85
2022-11-21T10:38:38.206Z,79.22
2022-11-21T10:41:30.522Z,79.41
2022-11-21T10:44:23.112Z,79.21
2022-11-21T10:46:57.335Z,78.62
2022-11-21T10:49:28.985Z,77.93
2022-11-21T10:52:15.063Z,77.76
2022-11-21T10:55:02.591Z,77.34
2022-11-21T10:57:33.092Z,77.58
2022-11-21T11:00:02.473Z,77.77
2022-11-21T11:02:29.170Z,76.31
2022-11-21T11:05:15.971Z,75.76
2022-11-21T11:07:58.683Z,75.35
2022-11-21T11:10:28.137Z,75.27
2022-11-21T11:13:38.867Z,74.42
2022-11-21T11:16:18.111Z,73.87
2022-11-21T11:19:11.000Z,74.31
2022-11-21T11:21:50.660Z,74.56
2022-11-21T11:24:17.575Z,74.64
2022-11-21T11:26:48.475Z,74.60
2022-11-21T11:29:21.080Z,74.79
2022-11-21T11:32:01.016Z,75.46
2022-11-21T11:34:40.655Z,74.97
2022-11-21T11:37:12.754Z,75.22
2022-11-21T11:40:08.649Z,76.11
2022-11-21T11:43:21.268Z,76.12
2022-11-21T11:46:18.915Z,76.63
2022-11-21T11:49:16.840Z,77.26
2022-11-21T11:51:42.274Z,78.04
2022-11-21T11:54:20.015Z,78.59
2022-11-21T11:56:47.409Z,80.00
2022-11-21T11:59:31.620Z,80.59
2022-11-21T12:02:17.508Z,80.20
2022-11-21T12:04:56.580Z,79.39
2022-11-21T12:08:33.122Z,79.52
2022-11-21T12:10:27.585Z,79.95
2022-11-21T12:13:11.228Z,80.50
2022-11-21T12:15:49.821Z,80.33
2022-11-21T12:18:22.347Z,79.87
2022-11-21T12:21:14.276Z,80.05
2022-11-21T12:23:58.117Z,79.84
2022-11-21T12:26:36.344Z,79.68
2022-11-21T12:29:32.115Z,79.28
2022-11-21T12:32:04.815Z,78.93
2022-11-21T12:34:40.561Z,78.61
2022-11-21T12:37:28.997Z,77.96
2022-11-21T12:40:00.434Z,77.01
2022-11-21T12:42:51.441Z,76.68
2022-11-21T12:45:36.728Z,76.52
2022-11-21T12:48:40.728Z,75.97
2022-11-21T12:51:57.133Z,75.86
2022-11-21T12:54:38.662Z,75.83
2022-11-21T12:57:11.711Z,75.94
2022-11-21T12:59:53.527Z,76.12
2022-11-21T13:02:55.564Z,76.01
2022-11-21T13:05:27.639Z,75.75
2022-11-21T13:08:02.327Z,75.56
2022-11-21T13:10:29.828Z,75.69
2022-11-21T13:13:23.912Z,75.89
2022-11-21T13:16:10.474Z,75.64
2022-11-21T13:18:48.964Z,75.72
2022-11-21T13:21:53.084Z,75.99
2022-11-21T13:24:45.144Z,76.42
2022-11-21T13:27:31.046Z,76.47
2022-11-21T13:30:07.650Z,76.38
2022-11-21T13:32:49.893Z,76.38
2022-11-21T13:35:16.565Z,76.15
2022-11-21T13:37:49.315Z,76.57
2022-11-21T13:40:28.482Z,76.02
2022-11-21T13:43:33.283Z,75.75
2022-11-21T13:46:01.387Z,76.02
2022-11-21T13:48:40.222Z,75.82
2022-11-21T13:51:38.024Z,75.60
2022-11-21T13:54:26.037Z,75.69
2022-11-21T13:57:23.877Z,75.45
2022-11-21T14:00:28.086Z,75.45
2022-11-21T14:02:57.805Z,76.12
2022-11-21T14:06:03.759Z,76.07
2022-11-21T14:08:30.689Z,75.85
2022-11-21T14:10:58.450Z,76.00
2022-11-21T14:13:31.591Z,75.62
2022-11-21T14:16:07.235Z,75.97
2022-11-21T14:18:35.883Z,76.19
2022-11-21T14:21:04.417Z,76.59
2022-11-21T14:23:34.146Z,76.67
2022-11-21T14:26:12.513Z,76.69
2022-11-21T14:28:39.324Z,76.45
2022-11-21T14:31:08.862Z,76.65
2022-11-21T14:33:40.482Z,77.21
2022-11-21T14:36:16.458Z,77.59
2022-11-21T14:39:13.879Z,77.67
2022-11-21T14:41:39.056Z,77.45
2022-11-21T14:44:17.011Z,77.47
2022-11-21T14:46:44.439Z,77.19
2022-11-21T14:49:16.938Z,77.11
2022-11-21T14:51:48.169Z,77.38
2022-11-21T14:54:18.964Z,76.87
2022-11-21T14:56:56.207Z,76.97
2022-11-21T14:59:26.171Z,77.11
2022-11-21T15:02:11.538Z,77.47
2022-11-21T15:04:38.609Z,77.19
2022-11-21T15:07:05.278Z,77.31
2022-11-21T15:12:48.009Z,77.07
2022-11-21T15:15:36.049Z,77.25
2022-11-21T15:20:56.369Z,76.98
2022-11-21T15:23:27.142Z,76.87
2022-11-21T15:28:54.963Z,77.43
2022-11-21T15:31:23.403Z,77.09
2022-11-21T15:34:12.538Z,76.81
2022-11-21T15:36:40.622Z,76.99
2022-11-21T15:39:18.982Z,76.73
2022-11-21T15:41:46.145Z,76.60
2022-11-21T15:44:13.565Z,77.17
2022-11-21T15:46:43.801Z,77.53
2022-11-21T15:52:07.717Z,77.65
2022-11-21T15:54:36.770Z,78.17
2022-11-21T15:57:03.401Z,78.07
2022-11-21T15:57:13.008Z,76.95
2022-11-21T15:57:14.195Z,77.74
2022-11-21T15:59:30.266Z,78.79
2022-11-21T16:01:57.260Z,78.69
2022-11-21T16:04:25.963Z,78.96
2022-11-21T16:06:53.909Z,79.57
2022-11-21T16:09:20.511Z,79.53
2022-11-21T16:11:47.413Z,79.58
2022-11-21T16:14:16.054Z,79.28
2022-11-21T16:16:43.881Z,78.91
2022-11-21T16:19:14.604Z,78.96
2022-11-21T16:21:41.834Z,78.62
2022-11-21T16:24:08.584Z,78.79
2022-11-21T16:26:35.166Z,78.68
2022-11-21T16:29:05.370Z,78.56
2022-11-21T16:31:32.478Z,78.85
2022-11-21T16:34:00.464Z,78.40
2022-11-21T16:36:29.100Z,79.15
2022-11-21T16:39:00.429Z,79.52
2022-11-21T16:41:30.149Z,79.27
2022-11-21T16:43:56.783Z,78.72
2022-11-21T16:46:25.281Z,78.75
2022-11-21T16:49:02.672Z,78.65
2022-11-21T16:51:30.080Z,78.64
2022-11-21T16:53:57.508Z,78.46
2022-11-21T16:56:24.877Z,78.29
2022-11-21T16:58:51.423Z,78.10
2022-11-21T17:01:21.265Z,78.26
2022-11-21T17:03:49.240Z,78.14
2022-11-21T17:06:18.526Z,77.95
2022-11-21T17:08:46.979Z,77.77
2022-11-21T17:11:18.234Z,77.63
2022-11-21T17:13:47.116Z,77.03
2022-11-21T17:16:15.161Z,77.34
2022-11-21T17:18:41.731Z,77.10
2022-11-21T17:21:11.230Z,76.68
2022-11-21T17:23:39.952Z,76.57
2022-11-21T17:26:08.642Z,76.69
2022-11-21T17:28:37.941Z,77.13
2022-11-21T17:31:11.422Z,77.29
2022-11-21T17:33:38.383Z,77.82
2022-11-21T17:36:06.909Z,77.91
2022-11-21T17:38:33.582Z,78.15
2022-11-21T17:41:04.530Z,78.06
2022-11-21T17:43:32.465Z,77.89
2022-11-21T17:46:09.301Z,78.02
2022-11-21T17:48:38.132Z,79.37
2022-11-21T17:51:20.370Z,79.20
2022-11-21T17:53:48.989Z,78.97
2022-11-21T17:56:17.748Z,80.03
2022-11-21T17:58:44.922Z,79.65
2022-11-21T18:01:18.463Z,80.28
2022-11-21T18:03:47.101Z,80.07
2022-11-21T18:06:16.177Z,79.72
2022-11-21T18:08:45.420Z,79.63
2022-11-21T18:11:14.034Z,80.04
2022-11-21T18:13:41.064Z,79.95
2022-11-21T18:16:20.232Z,80.13
2022-11-21T18:18:47.526Z,80.07
2022-11-21T18:21:17.176Z,79.70
2022-11-21T18:23:44.423Z,80.16
2022-11-21T18:26:16.696Z,80.03
2022-11-21T18:28:43.947Z,79.82
2022-11-21T18:31:13.242Z,80.83
2022-11-21T18:33:40.960Z,80.11
2022-11-21T18:36:08.696Z,80.82
2022-11-21T18:38:48.878Z,81.19
2022-11-21T18:41:18.480Z,80.58
2022-11-21T18:43:50.727Z,80.75
2022-11-21T18:46:17.654Z,80.21
2022-11-21T18:49:02.121Z,81.05
2022-11-21T18:51:32.109Z,81.51
2022-11-21T18:54:00.971Z,82.04
2022-11-21T18:56:27.579Z,80.79
2022-11-21T18:58:58.595Z,80.22
2022-11-21T19:01:28.103Z,81.26
2022-11-21T19:03:55.654Z,80.34
2022-11-21T19:06:24.393Z,80.54
2022-11-21T19:08:55.855Z,79.78
2022-11-21T19:11:24.690Z,79.60
2022-11-21T19:13:52.515Z,79.57
2022-11-21T19:16:21.559Z,80.54
2022-11-21T19:19:11.760Z,79.92
2022-11-21T19:21:39.771Z,80.51
2022-11-21T19:24:10.289Z,80.31
2022-11-21T19:26:36.899Z,79.34
2022-11-21T19:29:03.601Z,79.11
2022-11-21T19:31:30.205Z,80.03
2022-11-21T19:33:58.106Z,79.09
2022-11-21T19:36:25.148Z,79.59
2022-11-21T19:38:52.048Z,79.88
2022-11-21T19:41:22.453Z,78.88
2022-11-21T19:43:51.374Z,78.47
2022-11-21T19:46:26.602Z,79.53
2022-11-21T19:48:55.583Z,79.50
2022-11-21T19:51:27.589Z,78.73
2022-11-21T19:53:54.221Z,79.46
2022-11-21T19:56:23.257Z,79.21
2022-11-21T19:58:50.424Z,79.01
2022-11-21T20:01:19.443Z,78.82
2022-11-21T20:03:47.931Z,79.74
2022-11-21T20:06:20.065Z,79.23
2022-11-21T20:08:52.709Z,78.56
2022-11-21T20:11:20.749Z,78.48
2022-11-21T20:13:48.695Z,78.22
2022-11-21T20:16:28.492Z,79.34
2022-11-21T20:18:57.735Z,79.24
2022-11-21T20:21:24.368Z,78.94
2022-11-21T20:23:51.203Z,79.19
2022-11-21T20:26:19.859Z,79.14
2022-11-21T20:28:47.189Z,79.23
2022-11-21T20:31:16.885Z,79.37
2022-11-21T20:33:46.043Z,79.34
2022-11-21T20:36:17.316Z,79.58
2022-11-21T20:38:58.123Z,79.55
2022-11-21T20:41:27.038Z,79.12
2022-11-21T20:46:46.127Z,78.95
2022-11-21T20:49:12.744Z,79.22
2022-11-21T20:54:27.058Z,79.89
2022-11-21T20:56:53.812Z,80.05
2022-11-21T20:59:20.399Z,80.36
2022-11-21T21:01:47.241Z,79.84
2022-11-21T21:04:13.918Z,79.40
2022-11-21T21:06:40.474Z,79.36
2022-11-21T21:09:07.283Z,79.46
2022-11-21T21:14:21.870Z,79.35
2022-11-21T21:16:48.680Z,79.53
2022-11-21T21:19:15.389Z,79.78
2022-11-21T21:21:42.028Z,80.07
2022-11-21T21:24:10.797Z,80.14
2022-11-21T21:26:42.977Z,80.24
2022-11-21T21:29:11.858Z,80.47
2022-11-21T21:31:38.759Z,80.43
2022-11-21T21:34:05.701Z,80.46
2022-11-21T21:36:32.521Z,80.48
2022-11-21T21:39:00.142Z,80.91
2022-11-21T21:41:29.676Z,80.51
2022-11-21T21:43:57.514Z,80.59
2022-11-21T21:46:25.792Z,80.63
2022-11-21T21:48:57.212Z,80.78
2022-11-21T21:51:26.280Z,80.58
2022-11-21T21:53:54.594Z,80.32
2022-11-21T21:56:22.927Z,80.07
2022-11-21T21:58:50.698Z,79.85
2022-11-21T22:01:19.602Z,79.93
2022-11-21T22:03:58.979Z,79.77
2022-11-21T22:06:25.929Z,79.58
2022-11-21T22:08:54.023Z,80.00
2022-11-21T22:11:22.954Z,79.86
2022-11-21T22:13:58.571Z,79.66
2022-11-21T22:16:25.874Z,79.69
2022-11-21T22:18:53.042Z,79.30
2022-11-21T22:21:25.336Z,79.44
2022-11-21T22:24:23.077Z,79.38
2022-11-21T22:26:38.839Z,79.61
2022-11-21T22:29:05.710Z,79.57
2022-11-21T22:31:32.859Z,79.89
2022-11-21T22:33:59.945Z,79.73
2022-11-21T22:36:26.617Z,80.26
2022-11-21T22:38:54.655Z,80.45
2022-11-21T22:41:26.510Z,80.19
2022-11-21T22:43:55.566Z,80.05
2022-11-21T22:46:22.981Z,79.97
2022-11-21T22:48:49.920Z,79.92
2022-11-21T22:51:22.277Z,80.14
2022-11-21T22:53:49.503Z,79.87
2022-11-21T22:56:18.781Z,79.53
2022-11-21T22:58:45.930Z,79.60
2022-11-21T23:01:23.739Z,80.00
2022-11-21T23:03:50.951Z,79.85
2022-11-21T23:06:20.157Z,80.18
2022-11-21T23:08:47.405Z,80.21
2022-11-21T23:11:17.265Z,80.48
2022-11-21T23:13:45.724Z,80.59
2022-11-21T23:16:13.180Z,80.53
2022-11-21T23:18:40.312Z,80.55
2022-11-21T23:21:08.057Z,80.47
2022-11-21T23:23:34.905Z,80.43
2022-11-21T23:26:01.712Z,80.36
2022-11-21T23:28:28.588Z,80.09
2022-11-21T23:30:55.297Z,80.09
2022-11-21T23:33:22.028Z,80.18
2022-11-21T23:35:48.841Z,80.24
2022-11-21T23:38:16.957Z,80.14
2022-11-21T23:40:47.811Z,80.07
2022-11-21T23:43:15.655Z,80.12
2022-11-21T23:45:42.638Z,79.80
2022-11-21T23:48:09.297Z,80.13
2022-11-21T23:50:35.903Z,80.12
2022-11-21T23:53:03.148Z,79.89
2022-11-21T23:55:29.865Z,79.80
2022-11-21T23:57:56.407Z,79.51
